createdAt,value
2022-10-05T00:01:08.930Z,101452.00
2022-10-05T00:03:38.870Z,101446.84
2022-10-05T00:06:10.424Z,101459.16
2022-10-05T00:08:41.060Z,101449.88
2022-10-05T00:11:13.627Z,101454.91
2022-10-05T00:13:43.140Z,101450.16
2022-10-05T00:16:17.644Z,101457.78
2022-10-05T00:18:49.988Z,101454.75
2022-10-05T00:21:21.704Z,101455.47
2022-10-05T00:23:52.651Z,101447.81
2022-10-05T00:26:24.476Z,101445.19
2022-10-05T00:28:54.613Z,101446.75
2022-10-05T00:31:25.652Z,101445.81
2022-10-05T00:33:55.872Z,101447.09
2022-10-05T00:36:26.064Z,101445.22
2022-10-05T00:38:56.418Z,101444.09
2022-10-05T00:41:35.277Z,101444.50
2022-10-05T00:44:32.192Z,101446.59
2022-10-05T00:47:14.676Z,101447.59
2022-10-05T00:50:02.994Z,101442.66
2022-10-05T00:52:39.725Z,101444.28
2022-10-05T00:55:22.183Z,101443.03
2022-10-05T00:58:03.905Z,101431.09
2022-10-05T01:00:38.813Z,101425.50
2022-10-05T01:03:16.939Z,101416.47
2022-10-05T01:05:59.197Z,101411.91
2022-10-05T01:08:35.973Z,101413.44
2022-10-05T01:11:14.680Z,101402.50
2022-10-05T01:13:56.735Z,101393.66
2022-10-05T01:16:31.929Z,101397.97
2022-10-05T01:19:11.658Z,101402.56
2022-10-05T01:21:47.328Z,101401.41
2022-10-05T01:24:41.085Z,101402.94
2022-10-05T01:27:46.839Z,101407.50
2022-10-05T01:30:20.052Z,101397.13
2022-10-05T01:32:55.026Z,101399.22
2022-10-05T01:35:35.929Z,101389.91
2022-10-05T01:38:30.549Z,101378.53
2022-10-05T01:41:13.491Z,101370.63
2022-10-05T01:43:48.136Z,101360.91
2022-10-05T01:46:26.846Z,101357.72
2022-10-05T01:49:17.599Z,101364.09
2022-10-05T01:51:57.662Z,101367.03
2022-10-05T01:54:37.764Z,101376.84
2022-10-05T01:57:16.686Z,101372.69
2022-10-05T01:59:59.972Z,101374.09
2022-10-05T02:02:33.070Z,101374.22
2022-10-05T02:05:09.531Z,101372.31
2022-10-05T02:07:43.620Z,101379.81
2022-10-05T02:10:22.099Z,101372.56
2022-10-05T02:12:56.257Z,101366.06
2022-10-05T02:15:30.774Z,101368.69
2022-10-05T02:18:07.855Z,101357.47
2022-10-05T02:20:41.226Z,101365.22
2022-10-05T02:23:15.353Z,101363.84
2022-10-05T02:25:48.353Z,101373.25
2022-10-05T02:28:23.583Z,101367.66
2022-10-05T02:31:00.106Z,101365.47
2022-10-05T02:33:31.940Z,101369.88
2022-10-05T02:36:14.155Z,101369.44
2022-10-05T02:38:56.400Z,101361.94
2022-10-05T02:41:39.542Z,101358.03
2022-10-05T02:44:20.719Z,101356.88
2022-10-05T02:46:57.871Z,101354.97
2022-10-05T02:49:39.536Z,101345.72
2022-10-05T02:52:15.055Z,101340.94
2022-10-05T02:54:54.361Z,101340.66
2022-10-05T02:57:29.869Z,101343.66
2022-10-05T03:00:05.718Z,101322.38
2022-10-05T03:02:41.976Z,101323.44
2022-10-05T03:05:20.795Z,101325.41
2022-10-05T03:07:56.800Z,101312.75
2022-10-05T03:10:35.257Z,101315.25
2022-10-05T03:13:10.633Z,101314.97
2022-10-05T03:15:55.824Z,101321.25
2022-10-05T03:18:34.898Z,101321.28
2022-10-05T03:21:14.955Z,101315.59
2022-10-05T03:23:59.465Z,101323.06
2022-10-05T03:26:38.155Z,101309.75
2022-10-05T03:29:17.161Z,101311.56
2022-10-05T03:31:52.521Z,101302.94
2022-10-05T03:34:31.029Z,101311.50
2022-10-05T03:37:09.245Z,101312.28
2022-10-05T03:39:46.367Z,101306.84
2022-10-05T03:42:24.535Z,101312.66
2022-10-05T03:45:01.477Z,101306.69
2022-10-05T03:47:36.973Z,101303.75
2022-10-05T03:50:23.982Z,101297.53
2022-10-05T03:52:58.939Z,101299.44
2022-10-05T03:55:32.118Z,101296.31
2022-10-05T03:58:07.752Z,101300.16
2022-10-05T04:00:39.984Z,101302.13
2022-10-05T04:03:15.800Z,101290.19
2022-10-05T04:05:50.685Z,101288.69
2022-10-05T04:08:27.837Z,101283.09
2022-10-05T04:11:02.678Z,101289.34
2022-10-05T04:13:38.740Z,101286.09
2022-10-05T04:16:14.085Z,101292.09
2022-10-05T04:18:49.608Z,101291.50
2022-10-05T04:21:24.761Z,101290.28
2022-10-05T04:24:02.466Z,101292.19
2022-10-05T04:26:38.254Z,101289.72
2022-10-05T04:29:15.709Z,101294.25
2022-10-05T04:31:59.236Z,101293.69
2022-10-05T04:34:45.475Z,101287.47
2022-10-05T04:37:22.614Z,101284.13
2022-10-05T04:40:07.516Z,101278.75
2022-10-05T04:42:41.381Z,101284.97
2022-10-05T04:45:20.377Z,101278.88
2022-10-05T04:48:10.398Z,101278.63
2022-10-05T04:50:56.102Z,101277.22
2022-10-05T04:53:34.242Z,101280.53
2022-10-05T04:56:11.611Z,101279.69
2022-10-05T04:58:58.739Z,101275.28
2022-10-05T05:01:57.219Z,101266.88
2022-10-05T05:04:51.771Z,101275.72
2022-10-05T05:07:36.100Z,101276.41
2022-10-05T05:10:34.102Z,101280.59
2022-10-05T05:13:27.526Z,101281.56
2022-10-05T05:16:04.719Z,101272.13
2022-10-05T05:19:16.278Z,101266.88
2022-10-05T05:22:01.340Z,101276.19
2022-10-05T05:24:42.514Z,101272.31
2022-10-05T05:27:36.743Z,101271.22
2022-10-05T05:30:20.682Z,101267.88
2022-10-05T05:33:09.006Z,101263.97
2022-10-05T05:36:19.496Z,101262.59
2022-10-05T05:39:09.666Z,101257.09
2022-10-05T05:41:40.467Z,101251.50
2022-10-05T05:44:22.864Z,101252.34
2022-10-05T05:47:04.107Z,101248.22
2022-10-05T05:49:47.125Z,101252.41
2022-10-05T05:52:20.167Z,101260.53
2022-10-05T05:54:54.951Z,101253.19
2022-10-05T05:57:30.586Z,101263.03
2022-10-05T06:00:07.045Z,101262.31
2022-10-05T06:03:00.466Z,101265.66
2022-10-05T06:05:34.675Z,101252.63
2022-10-05T06:08:13.311Z,101252.63
2022-10-05T06:10:50.769Z,101244.72
2022-10-05T06:13:23.281Z,101252.75
2022-10-05T06:15:57.259Z,101253.31
2022-10-05T06:18:29.413Z,101254.97
2022-10-05T06:21:02.911Z,101249.06
2022-10-05T06:23:40.768Z,101248.09
2022-10-05T06:26:22.469Z,101250.19
2022-10-05T06:28:57.550Z,101242.44
2022-10-05T06:31:41.981Z,101255.44
2022-10-05T06:34:31.386Z,101238.69
2022-10-05T06:37:03.903Z,101246.31
2022-10-05T06:40:09.197Z,101253.88
2022-10-05T06:43:03.600Z,101255.94
2022-10-05T06:45:39.507Z,101260.81
2022-10-05T06:48:36.262Z,101262.19
2022-10-05T06:51:39.685Z,101259.03
2022-10-05T06:54:28.197Z,101238.38
2022-10-05T06:57:04.104Z,101245.53
2022-10-05T06:59:41.079Z,101239.44
2022-10-05T07:02:19.174Z,101239.56
2022-10-05T07:05:02.226Z,101241.78
2022-10-05T07:07:42.429Z,101242.22
2022-10-05T07:10:27.812Z,101240.81
2022-10-05T07:13:14.670Z,101247.59
2022-10-05T07:15:52.643Z,101241.63
2022-10-05T07:18:35.770Z,101237.75
2022-10-05T07:21:14.885Z,101226.06
2022-10-05T07:23:53.506Z,101233.97
2022-10-05T07:26:32.190Z,101236.31
2022-10-05T07:29:22.392Z,101236.03
2022-10-05T07:31:59.444Z,101230.31
2022-10-05T07:34:38.324Z,101235.31
2022-10-05T07:37:28.578Z,101239.31
2022-10-05T07:40:09.939Z,101237.41
2022-10-05T07:42:59.812Z,101242.81
2022-10-05T07:45:34.625Z,101239.19
2022-10-05T07:48:13.640Z,101233.38
2022-10-05T07:50:53.711Z,101244.78
2022-10-05T07:53:29.490Z,101223.50
2022-10-05T07:56:04.548Z,101244.22
2022-10-05T07:58:41.420Z,101241.97
2022-10-05T08:01:19.041Z,101239.78
2022-10-05T08:03:57.650Z,101234.34
2022-10-05T08:06:41.256Z,101244.78
2022-10-05T08:09:30.823Z,101247.81
2022-10-05T08:12:11.446Z,101240.97
2022-10-05T08:14:49.313Z,101253.72
2022-10-05T08:17:26.849Z,101252.75
2022-10-05T08:20:06.104Z,101243.16
2022-10-05T08:22:45.200Z,101247.72
2022-10-05T08:25:22.885Z,101232.84
2022-10-05T08:27:57.983Z,101253.00
2022-10-05T08:30:26.996Z,101251.06
2022-10-05T08:33:03.970Z,101260.94
2022-10-05T08:35:39.169Z,101236.88
2022-10-05T08:38:14.307Z,101247.41
2022-10-05T08:41:08.189Z,101236.50
2022-10-05T08:44:09.925Z,101250.53
2022-10-05T08:47:06.429Z,101235.50
2022-10-05T08:50:16.676Z,101252.16
2022-10-05T08:53:28.618Z,101252.00
2022-10-05T08:56:28.640Z,101251.84
2022-10-05T08:59:20.932Z,101255.53
2022-10-05T09:02:06.649Z,101254.88
2022-10-05T09:04:53.118Z,101250.78
2022-10-05T09:07:37.174Z,101247.84
2022-10-05T09:10:48.776Z,101249.44
2022-10-05T09:13:48.001Z,101243.88
2022-10-05T09:16:48.589Z,101242.28
2022-10-05T09:19:41.108Z,101241.75
2022-10-05T09:22:16.422Z,101233.13
2022-10-05T09:24:57.246Z,101237.31
2022-10-05T09:27:37.473Z,101224.69
2022-10-05T09:30:27.862Z,101235.13
2022-10-05T09:33:34.376Z,101228.72
2022-10-05T09:36:56.639Z,101222.06
2022-10-05T09:40:04.502Z,101227.34
2022-10-05T09:42:52.793Z,101215.41
2022-10-05T09:45:57.726Z,101212.34
2022-10-05T09:48:56.946Z,101219.84
2022-10-05T09:52:06.116Z,101214.88
2022-10-05T09:55:09.583Z,101207.78
2022-10-05T09:58:14.250Z,101210.56
2022-10-05T10:01:15.440Z,101210.56
2022-10-05T10:04:18.578Z,101209.59
2022-10-05T10:07:07.831Z,101212.78
2022-10-05T10:09:47.513Z,101208.03
2022-10-05T10:12:35.630Z,101208.03
2022-10-05T10:15:42.950Z,101210.28
2022-10-05T10:18:33.742Z,101206.97
2022-10-05T10:21:23.157Z,101211.53
2022-10-05T10:24:14.720Z,101205.00
2022-10-05T10:27:13.002Z,101201.97
2022-10-05T10:29:56.260Z,101200.00
2022-10-05T10:33:04.204Z,101198.41
2022-10-05T10:35:35.914Z,101202.59
2022-10-05T10:38:30.951Z,101197.53
2022-10-05T10:41:34.110Z,101208.41
2022-10-05T10:44:39.961Z,101201.22
2022-10-05T10:47:41.146Z,101196.84
2022-10-05T10:50:52.105Z,101206.34
2022-10-05T10:54:03.466Z,101216.41
2022-10-05T10:56:51.744Z,101204.69
2022-10-05T10:59:51.198Z,101207.72
2022-10-05T11:02:50.644Z,101208.63
2022-10-05T11:05:57.135Z,101202.03
2022-10-05T11:08:55.468Z,101201.06
2022-10-05T11:12:00.958Z,101190.66
2022-10-05T11:14:46.483Z,101203.19
2022-10-05T11:17:47.230Z,101198.13
2022-10-05T11:20:43.936Z,101196.16
2022-10-05T11:23:37.918Z,101194.06
2022-10-05T11:26:26.042Z,101194.06
2022-10-05T11:29:22.883Z,101182.03
2022-10-05T11:32:24.472Z,101181.50
2022-10-05T11:35:31.195Z,101186.41
2022-10-05T11:38:16.785Z,101185.22
2022-10-05T11:41:04.324Z,101189.53
2022-10-05T11:44:03.257Z,101172.69
2022-10-05T11:46:42.698Z,101165.66
2022-10-05T11:49:26.380Z,101185.50
2022-10-05T11:52:09.908Z,101165.53
2022-10-05T11:55:09.751Z,101172.16
2022-10-05T11:57:43.963Z,101160.59
2022-10-05T12:00:19.227Z,101159.47
2022-10-05T12:03:27.411Z,101154.53
2022-10-05T12:06:17.308Z,101150.34
2022-10-05T12:09:00.710Z,101134.81
2022-10-05T12:11:57.707Z,101134.81
2022-10-05T12:14:42.122Z,101129.91
2022-10-05T12:17:21.134Z,101137.31
2022-10-05T12:19:55.493Z,101127.47
2022-10-05T12:22:32.495Z,101134.06
2022-10-05T12:25:19.115Z,101122.72
2022-10-05T12:27:50.627Z,101109.28
2022-10-05T12:30:27.384Z,101113.56
2022-10-05T12:33:03.386Z,101111.34
2022-10-05T12:35:54.765Z,101107.66
2022-10-05T12:38:31.635Z,101102.25
2022-10-05T12:41:09.876Z,101096.72
2022-10-05T12:43:48.946Z,101097.03
2022-10-05T12:46:27.509Z,101091.28
2022-10-05T12:49:23.005Z,101087.97
2022-10-05T12:51:58.006Z,101093.13
2022-10-05T12:54:40.352Z,101090.16
2022-10-05T12:57:16.284Z,101084.22
2022-10-05T12:59:52.698Z,101082.03
2022-10-05T13:02:31.611Z,101081.16
2022-10-05T13:05:14.883Z,101081.69
2022-10-05T13:08:04.328Z,101075.16
2022-10-05T13:10:39.113Z,101073.69
2022-10-05T13:13:34.097Z,101074.56
2022-10-05T13:16:12.096Z,101076.75
2022-10-05T13:18:54.273Z,101071.56
2022-10-05T13:21:30.360Z,101074.53
2022-10-05T13:24:06.893Z,101071.72
2022-10-05T13:26:40.665Z,101059.50
2022-10-05T13:29:17.759Z,101059.00
2022-10-05T13:31:51.148Z,101058.47
2022-10-05T13:34:28.979Z,101060.31
2022-10-05T13:37:13.055Z,101061.94
2022-10-05T13:39:55.047Z,101049.06
2022-10-05T13:42:35.068Z,101056.38
2022-10-05T13:45:14.478Z,101059.81
2022-10-05T13:48:05.616Z,101062.31
2022-10-05T13:50:42.767Z,101059.00
2022-10-05T13:53:23.835Z,101048.25
2022-10-05T13:56:00.260Z,101048.25
2022-10-05T13:58:39.677Z,101040.28
2022-10-05T14:01:16.774Z,101054.88
2022-10-05T14:04:17.307Z,101050.91
2022-10-05T14:06:47.035Z,101040.16
2022-10-05T14:09:30.199Z,101047.78
2022-10-05T14:12:15.391Z,101040.47
2022-10-05T14:14:49.942Z,101039.97
2022-10-05T14:17:38.098Z,101040.66
2022-10-05T14:20:26.552Z,101044.47
2022-10-05T14:23:01.117Z,101049.09
2022-10-05T14:25:31.192Z,101049.59
2022-10-05T14:28:23.938Z,101060.34
2022-10-05T14:31:01.383Z,101048.44
2022-10-05T14:33:32.015Z,101038.50
2022-10-05T14:36:02.432Z,101031.53
2022-10-05T14:38:52.076Z,101041.50
2022-10-05T14:41:24.855Z,101050.09
2022-10-05T14:43:57.961Z,101047.28
2022-10-05T14:46:32.632Z,101040.31
2022-10-05T14:49:22.212Z,101039.72
2022-10-05T14:51:53.325Z,101033.38
2022-10-05T14:54:30.996Z,101023.16
2022-10-05T14:57:11.147Z,101032.56
2022-10-05T14:59:55.235Z,101024.81
2022-10-05T15:02:53.418Z,101015.53
2022-10-05T15:05:31.299Z,101021.34
2022-10-05T15:08:14.818Z,101019.81
2022-10-05T15:10:50.723Z,101021.00
2022-10-05T15:13:22.903Z,101011.22
2022-10-05T15:15:55.164Z,101020.03
2022-10-05T15:18:34.823Z,101015.06
2022-10-05T15:21:24.797Z,101010.75
2022-10-05T15:23:57.402Z,101013.72
2022-10-05T15:26:41.405Z,101003.25
2022-10-05T15:29:25.933Z,100996.28
2022-10-05T15:32:07.658Z,100993.47
2022-10-05T15:34:42.750Z,100983.88
2022-10-05T15:37:17.996Z,100978.25
2022-10-05T15:39:53.453Z,100972.66
2022-10-05T15:42:30.796Z,100968.03
2022-10-05T15:45:07.694Z,100968.16
2022-10-05T15:47:48.026Z,100961.06
2022-10-05T15:50:23.975Z,100955.28
2022-10-05T15:52:57.695Z,100957.44
2022-10-05T15:55:39.491Z,100956.44
2022-10-05T15:58:31.797Z,100952.31
2022-10-05T16:01:08.259Z,100960.41
2022-10-05T16:03:46.729Z,100961.88
2022-10-05T16:06:50.413Z,100973.31
2022-10-05T16:09:36.610Z,100974.50
2022-10-05T16:12:18.552Z,100970.66
2022-10-05T16:14:59.698Z,100973.31
2022-10-05T16:17:47.881Z,100976.47
2022-10-05T16:20:28.707Z,100981.09
2022-10-05T16:23:05.014Z,100979.59
2022-10-05T16:25:48.229Z,100977.28
2022-10-05T16:28:29.680Z,100981.22
2022-10-05T16:31:11.638Z,100972.44
2022-10-05T16:33:54.370Z,100976.25
2022-10-05T16:36:40.069Z,100983.69
2022-10-05T16:39:16.669Z,100983.72
2022-10-05T16:41:55.752Z,100991.28
2022-10-05T16:44:35.290Z,100985.50
2022-10-05T16:47:27.594Z,100984.66
2022-10-05T16:50:04.092Z,100994.88
2022-10-05T16:52:34.840Z,101002.66
2022-10-05T16:55:13.308Z,101006.31
2022-10-05T16:57:46.400Z,101007.00
2022-10-05T17:00:23.563Z,101011.50
2022-10-05T17:03:26.008Z,101019.06
2022-10-05T17:06:19.407Z,101023.88
2022-10-05T17:09:17.602Z,101028.69
2022-10-05T17:12:04.078Z,101028.34
2022-10-05T17:14:41.064Z,101035.13
2022-10-05T17:17:38.642Z,101042.06
2022-10-05T17:20:23.552Z,101040.75
2022-10-05T17:22:57.781Z,101044.59
2022-10-05T17:25:39.888Z,101040.13
2022-10-05T17:28:25.544Z,101045.22
2022-10-05T17:31:17.348Z,101047.22
2022-10-05T17:34:13.358Z,101047.22
2022-10-05T17:36:49.282Z,101051.03
2022-10-05T17:39:20.344Z,101053.81
2022-10-05T17:41:49.678Z,101049.34
2022-10-05T17:44:27.188Z,101049.72
2022-10-05T17:47:03.784Z,101046.22
2022-10-05T17:50:13.922Z,101047.69
2022-10-05T17:53:02.407Z,101050.34
2022-10-05T17:56:03.193Z,101050.50
2022-10-05T17:59:03.161Z,101049.81
2022-10-05T18:01:36.446Z,101053.25
2022-10-05T18:04:30.471Z,101044.47
2022-10-05T18:07:18.408Z,101050.09
2022-10-05T18:10:19.693Z,101037.06
2022-10-05T18:13:10.819Z,101035.06
2022-10-05T18:15:46.027Z,101033.91
2022-10-05T18:18:52.812Z,101034.38
2022-10-05T18:21:38.930Z,101029.09
2022-10-05T18:24:49.502Z,101021.50
2022-10-05T18:27:47.261Z,101026.75
2022-10-05T18:30:21.868Z,101013.03
2022-10-05T18:33:32.064Z,101010.38
2022-10-05T18:36:45.516Z,101010.38
2022-10-05T18:39:32.311Z,101002.25
2022-10-05T18:42:15.327Z,101004.72
2022-10-05T18:44:49.944Z,101013.81
2022-10-05T18:47:28.439Z,101004.91
2022-10-05T18:50:12.492Z,100997.94
2022-10-05T18:52:57.307Z,100997.91
2022-10-05T18:55:33.634Z,101000.25
2022-10-05T18:58:15.082Z,100995.63
2022-10-05T19:01:18.804Z,100996.63
2022-10-05T19:04:02.058Z,101000.13
2022-10-05T19:06:37.776Z,100998.31
2022-10-05T19:09:21.935Z,100997.81
2022-10-05T19:11:59.340Z,101008.72
2022-10-05T19:14:39.391Z,100997.97
2022-10-05T19:17:24.126Z,101002.75
2022-10-05T19:20:17.958Z,100996.63
2022-10-05T19:23:02.136Z,100998.75
2022-10-05T19:25:38.908Z,100998.25
2022-10-05T19:28:23.134Z,101006.81
2022-10-05T19:31:19.244Z,101001.97
2022-10-05T19:34:04.683Z,101009.66
2022-10-05T19:36:46.157Z,100991.94
2022-10-05T19:39:24.499Z,100999.22
2022-10-05T19:42:06.762Z,101007.00
2022-10-05T19:44:54.236Z,101005.28
2022-10-05T19:47:38.886Z,101000.25
2022-10-05T19:50:28.070Z,101005.09
2022-10-05T19:53:07.277Z,101005.94
2022-10-05T19:55:39.528Z,101012.22
2022-10-05T19:58:21.485Z,101010.75
2022-10-05T20:00:59.226Z,101023.16
2022-10-05T20:03:30.204Z,101022.47
2022-10-05T20:06:00.583Z,101024.50
2022-10-05T20:08:39.269Z,101028.81
2022-10-05T20:11:11.093Z,101030.28
2022-10-05T20:13:43.571Z,101043.19
2022-10-05T20:16:39.618Z,101036.91
2022-10-05T20:19:51.232Z,101034.59
2022-10-05T20:22:35.478Z,101034.41
2022-10-05T20:25:07.903Z,101036.75
2022-10-05T20:27:48.870Z,101041.03
2022-10-05T20:30:21.744Z,101040.03
2022-10-05T20:32:51.666Z,101036.91
2022-10-05T20:35:22.945Z,101038.91
2022-10-05T20:37:52.073Z,101036.25
2022-10-05T20:40:21.318Z,101027.78
2022-10-05T20:42:50.330Z,101018.00
2022-10-05T20:45:20.726Z,101033.91
2022-10-05T20:47:52.941Z,101039.41
2022-10-05T20:50:22.214Z,101035.41
2022-10-05T20:52:51.591Z,101044.00
2022-10-05T20:55:20.845Z,101047.34
2022-10-05T20:57:49.816Z,101035.22
2022-10-05T21:00:20.369Z,101044.84
2022-10-05T21:02:49.485Z,101045.16
2022-10-05T21:05:18.735Z,101036.69
2022-10-05T21:07:47.717Z,101030.56
2022-10-05T21:10:17.096Z,101043.03
2022-10-05T21:12:46.095Z,101027.91
2022-10-05T21:15:15.102Z,101029.22
2022-10-05T21:17:45.411Z,101024.91
2022-10-05T21:20:14.757Z,101033.50
2022-10-05T21:22:44.008Z,101045.44
2022-10-05T21:25:12.953Z,101052.72
2022-10-05T21:27:41.991Z,101040.97
2022-10-05T21:30:11.759Z,101041.63
2022-10-05T21:32:44.419Z,101041.97
2022-10-05T21:35:15.468Z,101049.75
2022-10-05T21:37:44.451Z,101053.13
2022-10-05T21:40:13.417Z,101059.41
2022-10-05T21:42:42.696Z,101062.03
2022-10-05T21:45:12.055Z,101070.13
2022-10-05T21:47:41.679Z,101072.31
2022-10-05T21:50:11.293Z,101073.84
2022-10-05T21:52:41.997Z,101081.63
2022-10-05T21:55:12.303Z,101082.94
2022-10-05T21:57:41.440Z,101094.53
2022-10-05T22:00:11.515Z,101084.09
2022-10-05T22:02:40.525Z,101086.41
2022-10-05T22:05:10.246Z,101081.09
2022-10-05T22:07:39.392Z,101081.28
2022-10-05T22:10:10.778Z,101086.38
2022-10-05T22:12:41.531Z,101092.00
2022-10-05T22:15:11.197Z,101090.84
2022-10-05T22:17:42.202Z,101098.78
2022-10-05T22:20:13.954Z,101093.19
2022-10-05T22:22:42.929Z,101087.84
2022-10-05T22:25:13.142Z,101090.69
2022-10-05T22:27:42.891Z,101089.41
2022-10-05T22:30:14.725Z,101100.34
2022-10-05T22:32:43.753Z,101094.00
2022-10-05T22:35:12.838Z,101096.38
2022-10-05T22:37:41.822Z,101104.13
2022-10-05T22:40:12.636Z,101095.03
2022-10-05T22:42:41.733Z,101101.66
2022-10-05T22:45:10.787Z,101116.56
2022-10-05T22:47:39.779Z,101127.97
2022-10-05T22:50:10.080Z,101130.94
2022-10-05T22:52:39.025Z,101134.91
2022-10-05T22:55:09.079Z,101154.34
2022-10-05T22:57:43.798Z,101177.31
2022-10-05T23:00:13.935Z,101203.59
2022-10-05T23:02:45.258Z,101179.47
2022-10-05T23:05:17.008Z,101165.03
2022-10-05T23:07:47.495Z,101176.69
2022-10-05T23:10:19.174Z,101176.06
2022-10-05T23:13:00.570Z,101175.91
2022-10-05T23:15:30.184Z,101191.00
2022-10-05T23:17:59.167Z,101201.44
2022-10-05T23:20:28.178Z,101194.13
2022-10-05T23:22:57.117Z,101195.34
2022-10-05T23:25:26.310Z,101203.28
2022-10-05T23:27:56.612Z,101221.69
2022-10-05T23:30:25.618Z,101215.50
2022-10-05T23:32:54.540Z,101217.47
2022-10-05T23:35:23.500Z,101223.50
2022-10-05T23:37:52.427Z,101221.84
2022-10-05T23:40:21.523Z,101229.91
2022-10-05T23:42:50.503Z,101228.28
2022-10-05T23:45:20.783Z,101234.84
2022-10-05T23:47:49.717Z,101242.06
2022-10-05T23:50:20.511Z,101256.56
2022-10-05T23:52:49.482Z,101274.09
2022-10-05T23:55:18.549Z,101273.78
2022-10-05T23:57:47.476Z,101277.13
